sensor_id;sensor_type;location;lat;lon;timestamp;pressure;altitude;pressure_sealevel;temperature;humidity
62789;BME280;66401;42.016;21.454;2023-04-16T00:02:10;97703.69;;;11.81;52.88
62789;BME280;66401;42.016;21.454;2023-04-16T00:04:36;97691.66;;;11.80;52.98
62789;BME280;66401;42.016;21.454;2023-04-16T00:07:01;97701.75;;;11.69;53.50
62789;BME280;66401;42.016;21.454;2023-04-16T00:09:27;97696.47;;;11.76;53.87
62789;BME280;66401;42.016;21.454;2023-04-16T00:11:52;97688.00;;;11.87;52.90
62789;BME280;66401;42.016;21.454;2023-04-16T00:14:18;97691.53;;;11.93;52.37
62789;BME280;66401;42.016;21.454;2023-04-16T00:16:43;97689.28;;;11.71;53.30
62789;BME280;66401;42.016;21.454;2023-04-16T00:19:09;97691.81;;;11.85;54.19
62789;BME280;66401;42.016;21.454;2023-04-16T00:21:34;97695.00;;;11.55;54.91
62789;BME280;66401;42.016;21.454;2023-04-16T00:24:00;97689.66;;;11.75;54.15
62789;BME280;66401;42.016;21.454;2023-04-16T00:26:25;97693.22;;;11.87;54.20
62789;BME280;66401;42.016;21.454;2023-04-16T00:28:51;97689.19;;;11.85;53.01
62789;BME280;66401;42.016;21.454;2023-04-16T00:31:16;97688.78;;;11.88;52.10
62789;BME280;66401;42.016;21.454;2023-04-16T00:33:42;97691.53;;;11.93;51.98
62789;BME280;66401;42.016;21.454;2023-04-16T00:36:08;97690.38;;;11.89;52.71
62789;BME280;66401;42.016;21.454;2023-04-16T00:38:34;97694.09;;;11.99;54.25
62789;BME280;66401;42.016;21.454;2023-04-16T00:40:59;97691.00;;;11.84;54.53
62789;BME280;66401;42.016;21.454;2023-04-16T00:43:25;97679.88;;;11.70;55.75
62789;BME280;66401;42.016;21.454;2023-04-16T00:45:52;97690.38;;;11.89;53.26
62789;BME280;66401;42.016;21.454;2023-04-16T00:48:19;97690.75;;;11.92;53.95
62789;BME280;66401;42.016;21.454;2023-04-16T00:50:45;97694.59;;;11.90;53.72
62789;BME280;66401;42.016;21.454;2023-04-16T00:53:10;97689.59;;;11.88;54.00
62789;BME280;66401;42.016;21.454;2023-04-16T00:55:36;97666.59;;;11.72;54.72
62789;BME280;66401;42.016;21.454;2023-04-16T00:58:03;97690.91;;;11.97;54.31
62789;BME280;66401;42.016;21.454;2023-04-16T01:00:29;97682.34;;;11.90;54.84
62789;BME280;66401;42.016;21.454;2023-04-16T01:02:55;97683.25;;;11.14;57.25
62789;BME280;66401;42.016;21.454;2023-04-16T01:05:20;97681.59;;;11.52;55.99
62789;BME280;66401;42.016;21.454;2023-04-16T01:07:46;97683.88;;;11.66;55.18
62789;BME280;66401;42.016;21.454;2023-04-16T01:10:11;97682.88;;;11.67;55.45
62789;BME280;66401;42.016;21.454;2023-04-16T01:12:37;97684.06;;;11.71;55.23
62789;BME280;66401;42.016;21.454;2023-04-16T01:15:02;97665.91;;;11.58;55.27
62789;BME280;66401;42.016;21.454;2023-04-16T01:17:28;97655.75;;;11.50;56.30
62789;BME280;66401;42.016;21.454;2023-04-16T01:19:57;97683.75;;;11.61;56.90
62789;BME280;66401;42.016;21.454;2023-04-16T01:22:23;97666.91;;;11.57;55.36
62789;BME280;66401;42.016;21.454;2023-04-16T01:24:49;97691.66;;;11.80;55.77
62789;BME280;66401;42.016;21.454;2023-04-16T01:27:14;97679.94;;;11.89;54.45
62789;BME280;66401;42.016;21.454;2023-04-16T01:29:39;97693.84;;;11.83;54.59
62789;BME280;66401;42.016;21.454;2023-04-16T01:32:05;97688.44;;;11.78;55.17
62789;BME280;66401;42.016;21.454;2023-04-16T01:34:31;97687.88;;;11.44;58.68
62789;BME280;66401;42.016;21.454;2023-04-16T01:36:56;97692.06;;;11.45;56.71
62789;BME280;66401;42.016;21.454;2023-04-16T01:39:22;97692.25;;;11.50;56.57
62789;BME280;66401;42.016;21.454;2023-04-16T01:41:47;97667.00;;;11.44;55.41
62789;BME280;66401;42.016;21.454;2023-04-16T01:44:13;97672.56;;;11.54;55.16
62789;BME280;66401;42.016;21.454;2023-04-16T01:46:38;97681.38;;;11.53;56.11
62789;BME280;66401;42.016;21.454;2023-04-16T01:49:04;97694.19;;;11.61;57.10
62789;BME280;66401;42.016;21.454;2023-04-16T01:51:31;97689.72;;;11.68;56.26
62789;BME280;66401;42.016;21.454;2023-04-16T01:53:57;97692.91;;;11.70;55.72
62789;BME280;66401;42.016;21.454;2023-04-16T01:56:22;97688.78;;;11.56;56.21
62789;BME280;66401;42.016;21.454;2023-04-16T01:58:48;97692.91;;;11.70;56.64
62789;BME280;66401;42.016;21.454;2023-04-16T02:01:14;97692.91;;;11.70;57.14
62789;BME280;66401;42.016;21.454;2023-04-16T02:03:40;97691.94;;;11.65;56.37
62789;BME280;66401;42.016;21.454;2023-04-16T02:06:06;97683.00;;;11.54;57.18
62789;BME280;66401;42.016;21.454;2023-04-16T02:08:31;97682.22;;;11.47;57.70
62789;BME280;66401;42.016;21.454;2023-04-16T02:10:58;97681.91;;;11.37;57.60
62789;BME280;66401;42.016;21.454;2023-04-16T02:13:24;97693.63;;;11.53;56.81
62789;BME280;66401;42.016;21.454;2023-04-16T02:15:50;97694.25;;;11.48;57.86
62789;BME280;66401;42.016;21.454;2023-04-16T02:18:16;97683.88;;;11.41;58.34
62789;BME280;66401;42.016;21.454;2023-04-16T02:20:43;97697.03;;;11.53;57.40
62789;BME280;66401;42.016;21.454;2023-04-16T02:23:09;97693.59;;;11.59;57.24
62789;BME280;66401;42.016;21.454;2023-04-16T02:25:43;97697.06;;;11.46;57.40
62789;BME280;66401;42.016;21.454;2023-04-16T02:28:11;97697.94;;;11.02;58.16
62789;BME280;66401;42.016;21.454;2023-04-16T02:30:38;97699.66;;;10.77;60.22
62789;BME280;66401;42.016;21.454;2023-04-16T02:33:06;97651.53;;;10.35;60.08
62789;BME280;66401;42.016;21.454;2023-04-16T02:35:35;97695.25;;;10.71;60.14
62789;BME280;66401;42.016;21.454;2023-04-16T02:38:01;97695.13;;;11.04;59.20
62789;BME280;66401;42.016;21.454;2023-04-16T02:40:29;97693.59;;;11.28;58.82
62789;BME280;66401;42.016;21.454;2023-04-16T02:42:55;97695.94;;;11.36;58.68
62789;BME280;66401;42.016;21.454;2023-04-16T02:45:21;97690.38;;;11.32;58.74
62789;BME280;66401;42.016;21.454;2023-04-16T02:47:47;97694.00;;;11.25;58.62
62789;BME280;66401;42.016;21.454;2023-04-16T02:50:13;97679.06;;;11.38;59.11
62789;BME280;66401;42.016;21.454;2023-04-16T02:52:38;97651.50;;;11.24;58.91
62789;BME280;66401;42.016;21.454;2023-04-16T02:55:05;97687.06;;;11.43;59.81
62789;BME280;66401;42.016;21.454;2023-04-16T02:57:31;97687.22;;;11.24;58.85
62789;BME280;66401;42.016;21.454;2023-04-16T02:59:57;97685.09;;;11.07;59.29
62789;BME280;66401;42.016;21.454;2023-04-16T03:02:22;97686.03;;;11.20;59.51
62789;BME280;66401;42.016;21.454;2023-04-16T03:04:49;97687.28;;;11.10;60.03
62789;BME280;66401;42.016;21.454;2023-04-16T03:07:15;97687.44;;;11.15;60.37
62789;BME280;66401;42.016;21.454;2023-04-16T03:09:42;97690.81;;;11.23;60.49
62789;BME280;66401;42.016;21.454;2023-04-16T03:12:08;97693.91;;;11.38;61.43
62789;BME280;66401;42.016;21.454;2023-04-16T03:14:33;97690.72;;;11.36;61.00
62789;BME280;66401;42.016;21.454;2023-04-16T03:16:59;97697.97;;;11.34;61.53
62789;BME280;66401;42.016;21.454;2023-04-16T03:19:24;97692.56;;;11.29;63.39
62789;BME280;66401;42.016;21.454;2023-04-16T03:21:50;97687.72;;;11.39;62.54
62789;BME280;66401;42.016;21.454;2023-04-16T03:24:15;97692.31;;;11.37;63.81
62789;BME280;66401;42.016;21.454;2023-04-16T03:26:41;97695.94;;;11.36;63.60
62789;BME280;66401;42.016;21.454;2023-04-16T03:29:06;97702.75;;;11.37;64.19
62789;BME280;66401;42.016;21.454;2023-04-16T03:31:32;97696.97;;;10.97;66.36
62789;BME280;66401;42.016;21.454;2023-04-16T03:33:57;97683.13;;;10.96;65.11
62789;BME280;66401;42.016;21.454;2023-04-16T03:36:23;97698.66;;;11.23;63.86
62789;BME280;66401;42.016;21.454;2023-04-16T03:38:49;97697.66;;;11.17;64.76
62789;BME280;66401;42.016;21.454;2023-04-16T03:41:15;97696.97;;;10.97;65.97
62789;BME280;66401;42.016;21.454;2023-04-16T03:43:41;97696.16;;;11.03;65.46
62789;BME280;66401;42.016;21.454;2023-04-16T03:46:07;97692.69;;;11.09;64.57
62789;BME280;66401;42.016;21.454;2023-04-16T03:48:32;97695.44;;;11.21;65.42
62789;BME280;66401;42.016;21.454;2023-04-16T03:50:58;97696.72;;;11.05;67.36
62789;BME280;66401;42.016;21.454;2023-04-16T03:53:23;97688.91;;;11.05;66.64
62789;BME280;66401;42.016;21.454;2023-04-16T03:55:49;97704.22;;;10.88;67.08
62789;BME280;66401;42.016;21.454;2023-04-16T03:58:16;97708.81;;;10.15;68.62
62789;BME280;66401;42.016;21.454;2023-04-16T04:00:41;97705.56;;;10.39;67.31
62789;BME280;66401;42.016;21.454;2023-04-16T04:03:08;97703.50;;;10.68;67.35
62789;BME280;66401;42.016;21.454;2023-04-16T04:05:39;97704.78;;;10.97;66.28
62789;BME280;66401;42.016;21.454;2023-04-16T04:08:05;97696.00;;;10.91;65.27
62789;BME280;66401;42.016;21.454;2023-04-16T04:10:34;97705.78;;;11.02;63.32
62789;BME280;66401;42.016;21.454;2023-04-16T04:13:04;97709.31;;;11.14;63.64
62789;BME280;66401;42.016;21.454;2023-04-16T04:15:30;97715.25;;;11.28;63.48
62789;BME280;66401;42.016;21.454;2023-04-16T04:17:56;97713.88;;;11.19;64.71
62789;BME280;66401;42.016;21.454;2023-04-16T04:20:22;97723.28;;;11.27;65.57
62789;BME280;66401;42.016;21.454;2023-04-16T04:22:48;97693.75;;;11.01;65.35
62789;BME280;66401;42.016;21.454;2023-04-16T04:25:15;97726.13;;;11.18;65.63
62789;BME280;66401;42.016;21.454;2023-04-16T04:27:41;97728.09;;;11.30;66.27
62789;BME280;66401;42.016;21.454;2023-04-16T04:30:06;97720.59;;;11.02;70.44
62789;BME280;66401;42.016;21.454;2023-04-16T04:32:32;97734.16;;;11.17;69.51
62789;BME280;66401;42.016;21.454;2023-04-16T04:34:59;97737.31;;;11.26;70.36
62789;BME280;66401;42.016;21.454;2023-04-16T04:37:25;97732.06;;;11.32;71.35
62789;BME280;66401;42.016;21.454;2023-04-16T04:39:51;97734.03;;;11.37;70.37
62789;BME280;66401;42.016;21.454;2023-04-16T04:42:17;97740.47;;;11.34;71.81
62789;BME280;66401;42.016;21.454;2023-04-16T04:44:43;97734.13;;;11.24;70.23
62789;BME280;66401;42.016;21.454;2023-04-16T04:47:09;97738.63;;;11.10;71.73
62789;BME280;66401;42.016;21.454;2023-04-16T04:49:34;97733.34;;;11.16;72.23
62789;BME280;66401;42.016;21.454;2023-04-16T04:52:00;97741.69;;;10.94;73.62
62789;BME280;66401;42.016;21.454;2023-04-16T04:54:27;97739.53;;;10.77;73.53
62789;BME280;66401;42.016;21.454;2023-04-16T04:56:53;97753.59;;;10.56;72.85
62789;BME280;66401;42.016;21.454;2023-04-16T04:59:22;97741.81;;;10.54;73.47
62789;BME280;66401;42.016;21.454;2023-04-16T05:01:48;97746.91;;;10.87;70.80
62789;BME280;66401;42.016;21.454;2023-04-16T05:04:14;97741.75;;;10.74;73.22
62789;BME280;66401;42.016;21.454;2023-04-16T05:06:40;97755.16;;;10.84;71.18
62789;BME280;66401;42.016;21.454;2023-04-16T05:09:05;97748.84;;;11.05;70.32
62789;BME280;66401;42.016;21.454;2023-04-16T05:11:35;97747.28;;;10.97;72.46
62789;BME280;66401;42.016;21.454;2023-04-16T05:14:01;97754.28;;;11.03;73.19
62789;BME280;66401;42.016;21.454;2023-04-16T05:16:26;97755.63;;;11.12;71.33
62789;BME280;66401;42.016;21.454;2023-04-16T05:18:52;97750.81;;;11.09;72.00
62789;BME280;66401;42.016;21.454;2023-04-16T05:21:17;97754.44;;;11.08;71.38
62789;BME280;66401;42.016;21.454;2023-04-16T05:23:43;97762.22;;;11.15;69.56
62789;BME280;66401;42.016;21.454;2023-04-16T05:26:08;97762.66;;;11.12;70.09
62789;BME280;66401;42.016;21.454;2023-04-16T05:28:33;97769.00;;;11.29;69.96
62789;BME280;66401;42.016;21.454;2023-04-16T05:30:59;97767.25;;;11.16;67.55
62789;BME280;66401;42.016;21.454;2023-04-16T05:33:24;97773.47;;;11.15;69.95
62789;BME280;66401;42.016;21.454;2023-04-16T05:35:50;97756.47;;;11.06;69.77
62789;BME280;66401;42.016;21.454;2023-04-16T05:38:15;97773.56;;;11.34;69.82
62789;BME280;66401;42.016;21.454;2023-04-16T05:40:41;97772.41;;;11.30;69.53
62789;BME280;66401;42.016;21.454;2023-04-16T05:43:06;97766.00;;;11.26;67.76
62789;BME280;66401;42.016;21.454;2023-04-16T05:45:32;97759.38;;;11.30;68.29
62789;BME280;66401;42.016;21.454;2023-04-16T05:48:04;97777.19;;;11.33;70.75
62789;BME280;66401;42.016;21.454;2023-04-16T05:50:29;97770.25;;;11.13;72.81
62789;BME280;66401;42.016;21.454;2023-04-16T05:52:56;97735.69;;;10.86;70.50
62789;BME280;66401;42.016;21.454;2023-04-16T05:55:22;97773.19;;;10.79;73.36
62789;BME280;66401;42.016;21.454;2023-04-16T05:57:47;97769.59;;;10.73;73.59
62789;BME280;66401;42.016;21.454;2023-04-16T06:00:13;97767.56;;;10.82;72.80
62789;BME280;66401;42.016;21.454;2023-04-16T06:02:38;97772.16;;;10.80;73.33
62789;BME280;66401;42.016;21.454;2023-04-16T06:05:04;97771.63;;;10.58;73.76
62789;BME280;66401;42.016;21.454;2023-04-16T06:07:29;97770.28;;;10.42;74.89
62789;BME280;66401;42.016;21.454;2023-04-16T06:09:55;97771.28;;;10.28;76.08
62789;BME280;66401;42.016;21.454;2023-04-16T06:12:20;97766.25;;;10.40;76.54
62789;BME280;66401;42.016;21.454;2023-04-16T06:14:46;97772.06;;;10.48;76.31
62789;BME280;66401;42.016;21.454;2023-04-16T06:17:11;97770.63;;;10.72;75.45
62789;BME280;66401;42.016;21.454;2023-04-16T06:19:37;97767.16;;;10.85;74.50
62789;BME280;66401;42.016;21.454;2023-04-16T06:22:02;97758.31;;;10.93;74.57
62789;BME280;66401;42.016;21.454;2023-04-16T06:24:29;97762.88;;;11.10;74.28
62789;BME280;66401;42.016;21.454;2023-04-16T06:26:54;97761.84;;;11.11;74.83
62789;BME280;66401;42.016;21.454;2023-04-16T06:29:21;97761.97;;;11.30;73.54
62789;BME280;66401;42.016;21.454;2023-04-16T06:31:47;97765.84;;;11.21;72.58
62789;BME280;66401;42.016;21.454;2023-04-16T06:34:12;97765.41;;;11.24;72.54
62789;BME280;66401;42.016;21.454;2023-04-16T06:36:38;97759.09;;;11.38;72.10
62789;BME280;66401;42.016;21.454;2023-04-16T06:39:03;97757.50;;;11.37;72.97
62789;BME280;66401;42.016;21.454;2023-04-16T06:41:29;97750.47;;;11.44;72.16
62789;BME280;66401;42.016;21.454;2023-04-16T06:43:55;97754.16;;;11.30;72.78
62789;BME280;66401;42.016;21.454;2023-04-16T06:46:20;97749.28;;;11.40;72.97
62789;BME280;66401;42.016;21.454;2023-04-16T06:48:45;97759.63;;;11.53;72.18
62789;BME280;66401;42.016;21.454;2023-04-16T06:51:11;97765.06;;;11.52;71.96
62789;BME280;66401;42.016;21.454;2023-04-16T06:53:37;97768.91;;;11.49;73.00
62789;BME280;66401;42.016;21.454;2023-04-16T06:56:03;97777.81;;;11.66;72.05
62789;BME280;66401;42.016;21.454;2023-04-16T06:58:29;97777.91;;;11.85;71.74
62789;BME280;66401;42.016;21.454;2023-04-16T07:00:54;97772.69;;;11.85;70.49
62789;BME280;66401;42.016;21.454;2023-04-16T07:03:19;97731.06;;;11.65;71.47
62789;BME280;66401;42.016;21.454;2023-04-16T07:05:45;97769.84;;;11.93;69.38
62789;BME280;66401;42.016;21.454;2023-04-16T07:08:10;97761.00;;;11.94;70.38
62789;BME280;66401;42.016;21.454;2023-04-16T07:10:37;97775.78;;;12.07;69.05
62789;BME280;66401;42.016;21.454;2023-04-16T07:13:02;97779.84;;;11.96;70.15
62789;BME280;66401;42.016;21.454;2023-04-16T07:15:28;97768.66;;;11.89;70.23
62789;BME280;66401;42.016;21.454;2023-04-16T07:17:53;97784.41;;;12.07;68.02
62789;BME280;66401;42.016;21.454;2023-04-16T07:20:19;97772.69;;;11.85;68.59
62789;BME280;66401;42.016;21.454;2023-04-16T07:22:45;97781.47;;;11.97;69.44
62789;BME280;66401;42.016;21.454;2023-04-16T07:25:10;97788.22;;;12.04;68.38
62789;BME280;66401;42.016;21.454;2023-04-16T07:27:36;97789.19;;;12.10;67.17
62789;BME280;66401;42.016;21.454;2023-04-16T07:30:01;97783.69;;;12.18;68.08
62789;BME280;66401;42.016;21.454;2023-04-16T07:32:28;97782.25;;;12.22;68.24
62789;BME280;66401;42.016;21.454;2023-04-16T07:34:53;97776.06;;;12.42;66.22
62789;BME280;66401;42.016;21.454;2023-04-16T07:37:19;97777.06;;;12.41;68.64
62789;BME280;66401;42.016;21.454;2023-04-16T07:39:45;97772.09;;;12.57;66.54
62789;BME280;66401;42.016;21.454;2023-04-16T07:42:11;97772.34;;;12.74;66.02
62789;BME280;66401;42.016;21.454;2023-04-16T07:44:37;97764.91;;;12.89;67.22
62789;BME280;66401;42.016;21.454;2023-04-16T07:47:03;97765.06;;;12.95;65.39
62789;BME280;66401;42.016;21.454;2023-04-16T07:49:28;97767.53;;;13.08;66.69
62789;BME280;66401;42.016;21.454;2023-04-16T07:51:54;97758.34;;;13.35;62.58
62789;BME280;66401;42.016;21.454;2023-04-16T07:54:22;97758.88;;;13.56;62.65
62789;BME280;66401;42.016;21.454;2023-04-16T07:56:47;97748.94;;;13.76;61.06
62789;BME280;66401;42.016;21.454;2023-04-16T07:59:13;97749.56;;;13.60;63.59
62789;BME280;66401;42.016;21.454;2023-04-16T08:01:38;97745.13;;;14.14;58.24
62789;BME280;66401;42.016;21.454;2023-04-16T08:04:04;97743.06;;;14.16;60.03
62789;BME280;66401;42.016;21.454;2023-04-16T08:06:29;97747.97;;;14.36;58.84
62789;BME280;66401;42.016;21.454;2023-04-16T08:08:55;97736.00;;;14.28;58.92
62789;BME280;66401;42.016;21.454;2023-04-16T08:11:21;97742.06;;;14.28;57.77
62789;BME280;66401;42.016;21.454;2023-04-16T08:13:46;97734.53;;;14.55;57.30
62789;BME280;66401;42.016;21.454;2023-04-16T08:16:12;97738.34;;;15.00;54.93
62789;BME280;66401;42.016;21.454;2023-04-16T08:18:37;97736.66;;;14.82;55.89
62789;BME280;66401;42.016;21.454;2023-04-16T08:21:03;97727.56;;;15.13;55.92
62789;BME280;66401;42.016;21.454;2023-04-16T08:23:28;97742.84;;;14.52;57.25
62789;BME280;66401;42.016;21.454;2023-04-16T08:25:54;97727.25;;;14.57;56.37
62789;BME280;66401;42.016;21.454;2023-04-16T08:28:19;97732.31;;;14.87;56.80
62789;BME280;66401;42.016;21.454;2023-04-16T08:30:45;97700.34;;;15.02;55.00
62789;BME280;66401;42.016;21.454;2023-04-16T08:33:11;97734.63;;;15.41;52.81
62789;BME280;66401;42.016;21.454;2023-04-16T08:35:38;97731.09;;;14.08;53.24
62789;BME280;66401;42.016;21.454;2023-04-16T08:38:04;97725.97;;;14.01;54.01
62789;BME280;66401;42.016;21.454;2023-04-16T08:40:30;97721.44;;;14.55;54.14
62789;BME280;66401;42.016;21.454;2023-04-16T08:42:57;97717.91;;;14.50;52.66
62789;BME280;66401;42.016;21.454;2023-04-16T08:45:25;97727.69;;;14.31;54.08
62789;BME280;66401;42.016;21.454;2023-04-16T08:47:52;97717.63;;;14.75;57.03
62789;BME280;66401;42.016;21.454;2023-04-16T08:50:25;97722.00;;;15.38;53.86
62789;BME280;66401;42.016;21.454;2023-04-16T08:52:51;97724.22;;;15.74;53.42
62789;BME280;66401;42.016;21.454;2023-04-16T08:55:31;97724.22;;;16.25;51.33
62789;BME280;66401;42.016;21.454;2023-04-16T08:58:00;97713.72;;;16.85;51.71
62789;BME280;66401;42.016;21.454;2023-04-16T09:00:28;97721.44;;;17.41;48.61
62789;BME280;66401;42.016;21.454;2023-04-16T09:02:55;97704.84;;;18.05;47.62
62789;BME280;66401;42.016;21.454;2023-04-16T09:05:21;97700.94;;;17.75;51.03
62789;BME280;66401;42.016;21.454;2023-04-16T09:07:51;97692.91;;;18.29;46.44
62789;BME280;66401;42.016;21.454;2023-04-16T09:10:17;97699.41;;;18.64;45.65
62789;BME280;66401;42.016;21.454;2023-04-16T09:12:44;97694.53;;;18.35;45.30
62789;BME280;66401;42.016;21.454;2023-04-16T09:15:10;97698.38;;;18.17;44.98
62789;BME280;66401;42.016;21.454;2023-04-16T09:17:36;97691.88;;;18.35;46.12
62789;BME280;66401;42.016;21.454;2023-04-16T09:20:04;97683.03;;;17.72;45.98
62789;BME280;66401;42.016;21.454;2023-04-16T09:22:30;97692.56;;;17.78;47.87
62789;BME280;66401;42.016;21.454;2023-04-16T09:24:56;97685.03;;;18.34;47.37
62789;BME280;66401;42.016;21.454;2023-04-16T09:27:22;97679.72;;;18.81;46.16
62789;BME280;66401;42.016;21.454;2023-04-16T09:29:48;97677.88;;;18.87;44.36
62789;BME280;66401;42.016;21.454;2023-04-16T09:32:13;97675.03;;;18.94;45.38
62789;BME280;66401;42.016;21.454;2023-04-16T09:34:58;97676.84;;;18.88;44.33
62789;BME280;66401;42.016;21.454;2023-04-16T09:37:26;97668.81;;;18.63;44.52
62789;BME280;66401;42.016;21.454;2023-04-16T09:39:58;97657.19;;;18.53;44.17
62789;BME280;66401;42.016;21.454;2023-04-16T09:42:31;97671.94;;;17.70;45.61
62789;BME280;66401;42.016;21.454;2023-04-16T09:44:58;97668.16;;;16.80;44.65
62789;BME280;66401;42.016;21.454;2023-04-16T09:47:43;97677.63;;;17.03;44.32
62789;BME280;66401;42.016;21.454;2023-04-16T09:50:14;97670.38;;;16.27;45.22
62789;BME280;66401;42.016;21.454;2023-04-16T09:52:42;97680.06;;;17.09;45.64
62789;BME280;66401;42.016;21.454;2023-04-16T09:55:08;97668.47;;;16.83;44.97
62789;BME280;66401;42.016;21.454;2023-04-16T09:57:36;97667.69;;;16.66;46.36
62789;BME280;66401;42.016;21.454;2023-04-16T10:00:04;97660.81;;;16.60;45.73
62789;BME280;66401;42.016;21.454;2023-04-16T10:02:30;97664.25;;;16.82;46.04
62789;BME280;66401;42.016;21.454;2023-04-16T10:04:58;97668.28;;;17.17;43.87
62789;BME280;66401;42.016;21.454;2023-04-16T10:07:28;97655.72;;;17.83;44.86
62789;BME280;66401;42.016;21.454;2023-04-16T10:09:54;97653.19;;;18.03;42.17
62789;BME280;66401;42.016;21.454;2023-04-16T10:12:20;97654.84;;;18.10;42.84
62789;BME280;66401;42.016;21.454;2023-04-16T10:14:46;97662.25;;;18.18;42.00
62789;BME280;66401;42.016;21.454;2023-04-16T10:17:12;97658.69;;;16.40;46.44
62789;BME280;66401;42.016;21.454;2023-04-16T10:19:38;97652.38;;;15.81;46.58
62789;BME280;66401;42.016;21.454;2023-04-16T10:22:04;97632.47;;;16.67;44.57
62789;BME280;66401;42.016;21.454;2023-04-16T10:24:31;97629.91;;;16.28;45.10
62789;BME280;66401;42.016;21.454;2023-04-16T10:26:58;97644.41;;;15.92;47.34
62789;BME280;66401;42.016;21.454;2023-04-16T10:29:26;97649.91;;;15.74;46.40
62789;BME280;66401;42.016;21.454;2023-04-16T10:31:53;97637.22;;;16.05;46.16
62789;BME280;66401;42.016;21.454;2023-04-16T10:34:19;97646.59;;;16.39;45.02
62789;BME280;66401;42.016;21.454;2023-04-16T10:36:50;97648.94;;;16.57;45.06
62789;BME280;66401;42.016;21.454;2023-04-16T10:39:37;97639.81;;;17.09;44.64
62789;BME280;66401;42.016;21.454;2023-04-16T10:42:10;97636.31;;;17.99;42.53
62789;BME280;66401;42.016;21.454;2023-04-16T10:44:36;97618.16;;;17.66;42.60
62789;BME280;66401;42.016;21.454;2023-04-16T10:47:02;97623.03;;;17.79;42.15
62789;BME280;66401;42.016;21.454;2023-04-16T10:49:34;97632.84;;;18.36;43.29
62789;BME280;66401;42.016;21.454;2023-04-16T10:52:07;97627.44;;;17.41;42.12
62789;BME280;66401;42.016;21.454;2023-04-16T10:54:36;97629.47;;;18.03;42.27
62789;BME280;66401;42.016;21.454;2023-04-16T10:57:04;97625.41;;;17.81;42.55
62789;BME280;66401;42.016;21.454;2023-04-16T10:59:35;97614.06;;;17.80;42.37
62789;BME280;66401;42.016;21.454;2023-04-16T11:02:07;97628.16;;;17.05;43.46
62789;BME280;66401;42.016;21.454;2023-04-16T11:04:38;97609.88;;;17.47;42.81
62789;BME280;66401;42.016;21.454;2023-04-16T11:12:12;97602.38;;;17.34;45.91
62789;BME280;66401;42.016;21.454;2023-04-16T11:14:39;97604.44;;;17.64;46.94
62789;BME280;66401;42.016;21.454;2023-04-16T11:17:05;97609.13;;;17.94;45.82
62789;BME280;66401;42.016;21.454;2023-04-16T11:19:31;97612.75;;;17.83;44.34
62789;BME280;66401;42.016;21.454;2023-04-16T11:21:57;97600.78;;;17.01;46.93
62789;BME280;66401;42.016;21.454;2023-04-16T11:24:23;97603.00;;;17.14;47.32
62789;BME280;66401;42.016;21.454;2023-04-16T11:26:53;97593.00;;;17.80;45.54
62789;BME280;66401;42.016;21.454;2023-04-16T11:29:18;97600.75;;;18.02;44.34
62789;BME280;66401;42.016;21.454;2023-04-16T11:31:51;97601.03;;;18.00;46.40
62789;BME280;66401;42.016;21.454;2023-04-16T11:34:18;97599.06;;;18.33;45.05
62789;BME280;66401;42.016;21.454;2023-04-16T11:36:45;97595.13;;;18.36;46.12
62789;BME280;66401;42.016;21.454;2023-04-16T11:39:11;97593.59;;;18.45;45.17
62789;BME280;66401;42.016;21.454;2023-04-16T11:41:44;97605.47;;;17.58;46.91
62789;BME280;66401;42.016;21.454;2023-04-16T11:44:16;97592.78;;;16.91;47.76
62789;BME280;66401;42.016;21.454;2023-04-16T11:46:42;97607.81;;;16.95;48.71
62789;BME280;66401;42.016;21.454;2023-04-16T11:49:07;97594.16;;;16.98;48.32
62789;BME280;66401;42.016;21.454;2023-04-16T11:51:41;97593.25;;;17.46;47.82
62789;BME280;66401;42.016;21.454;2023-04-16T11:54:07;97586.72;;;17.49;47.80
62789;BME280;66401;42.016;21.454;2023-04-16T11:56:34;97585.63;;;17.45;48.71
62789;BME280;66401;42.016;21.454;2023-04-16T11:59:21;97590.81;;;17.08;48.87
62789;BME280;66401;42.016;21.454;2023-04-16T12:01:49;97586.63;;;17.39;48.42
62789;BME280;66401;42.016;21.454;2023-04-16T12:04:16;97580.28;;;17.35;48.26
62789;BME280;66401;42.016;21.454;2023-04-16T12:07:05;97579.00;;;17.37;50.93
62789;BME280;66401;42.016;21.454;2023-04-16T12:09:31;97578.44;;;17.35;48.25
62789;BME280;66401;42.016;21.454;2023-04-16T12:11:56;97575.25;;;17.33;49.03
62789;BME280;66401;42.016;21.454;2023-04-16T12:14:22;97583.44;;;17.37;48.91
62789;BME280;66401;42.016;21.454;2023-04-16T12:16:48;97577.75;;;17.50;48.06
62789;BME280;66401;42.016;21.454;2023-04-16T12:19:13;97567.91;;;17.35;47.59
62789;BME280;66401;42.016;21.454;2023-04-16T12:21:41;97570.38;;;17.15;49.58
62789;BME280;66401;42.016;21.454;2023-04-16T12:24:09;97568.50;;;17.42;48.56
62789;BME280;66401;42.016;21.454;2023-04-16T12:26:47;97569.56;;;17.46;49.19
62789;BME280;66401;42.016;21.454;2023-04-16T12:29:25;97571.78;;;17.60;48.38
62789;BME280;66401;42.016;21.454;2023-04-16T12:31:52;97565.72;;;17.59;48.95
62789;BME280;66401;42.016;21.454;2023-04-16T12:34:19;97557.72;;;17.81;48.97
62789;BME280;66401;42.016;21.454;2023-04-16T12:36:47;97549.59;;;17.93;46.26
62789;BME280;66401;42.016;21.454;2023-04-16T12:39:14;97537.16;;;17.83;45.66
62789;BME280;66401;42.016;21.454;2023-04-16T12:41:41;97545.06;;;17.83;46.48
62789;BME280;66401;42.016;21.454;2023-04-16T12:44:09;97545.63;;;17.90;46.81
62789;BME280;66401;42.016;21.454;2023-04-16T12:46:39;97524.59;;;17.53;47.29
62789;BME280;66401;42.016;21.454;2023-04-16T12:49:05;97532.38;;;17.75;46.01
62789;BME280;66401;42.016;21.454;2023-04-16T12:51:32;97525.56;;;17.84;47.39
62789;BME280;66401;42.016;21.454;2023-04-16T12:53:59;97531.31;;;17.71;47.62